sensor_id;sensor_type;location;lat;lon;timestamp;P1;durP1;ratioP1;P2;durP2;ratioP2
8462;SDS011;4268;52.506;13.462;2023-06-04T00:01:57;2.90;;;2.70;;
8462;SDS011;4268;52.506;13.462;2023-06-04T00:04:22;3.10;;;2.90;;
8462;SDS011;4268;52.506;13.462;2023-06-04T00:06:50;3.37;;;3.13;;
8462;SDS011;4268;52.506;13.462;2023-06-04T00:09:16;3.10;;;2.90;;
8462;SDS011;4268;52.506;13.462;2023-06-04T00:11:41;2.90;;;2.70;;
8462;SDS011;4268;52.506;13.462;2023-06-04T00:14:07;2.80;;;2.60;;
8462;SDS011;4268;52.506;13.462;2023-06-04T00:16:32;2.70;;;2.50;;
8462;SDS011;4268;52.506;13.462;2023-06-04T00:19:00;2.90;;;2.63;;
8462;SDS011;4268;52.506;13.462;2023-06-04T00:21:26;2.53;;;2.43;;
8462;SDS011;4268;52.506;13.462;2023-06-04T00:23:51;2.77;;;2.57;;
8462;SDS011;4268;52.506;13.462;2023-06-04T00:26:17;3.17;;;2.83;;
8462;SDS011;4268;52.506;13.462;2023-06-04T00:28:42;2.70;;;2.50;;
8462;SDS011;4268;52.506;13.462;2023-06-04T00:31:08;2.50;;;2.30;;
8462;SDS011;4268;52.506;13.462;2023-06-04T00:33:35;2.40;;;2.20;;
8462;SDS011;4268;52.506;13.462;2023-06-04T00:36:01;2.47;;;2.27;;
8462;SDS011;4268;52.506;13.462;2023-06-04T00:38:27;2.37;;;2.27;;
8462;SDS011;4268;52.506;13.462;2023-06-04T00:40:52;2.60;;;2.40;;
8462;SDS011;4268;52.506;13.462;2023-06-04T00:43:18;2.60;;;2.30;;
8462;SDS011;4268;52.506;13.462;2023-06-04T00:45:44;2.50;;;2.30;;
8462;SDS011;4268;52.506;13.462;2023-06-04T00:48:09;2.57;;;2.43;;
8462;SDS011;4268;52.506;13.462;2023-06-04T00:50:35;2.80;;;2.60;;
8462;SDS011;4268;52.506;13.462;2023-06-04T00:53:03;2.80;;;2.60;;
8462;SDS011;4268;52.506;13.462;2023-06-04T00:55:30;2.60;;;2.40;;
8462;SDS011;4268;52.506;13.462;2023-06-04T00:57:56;2.83;;;2.57;;
8462;SDS011;4268;52.506;13.462;2023-06-04T01:00:22;2.60;;;2.40;;
8462;SDS011;4268;52.506;13.462;2023-06-04T01:02:47;2.40;;;2.30;;
8462;SDS011;4268;52.506;13.462;2023-06-04T01:08:05;2.60;;;2.40;;
8462;SDS011;4268;52.506;13.462;2023-06-04T01:10:34;2.30;;;2.20;;
8462;SDS011;4268;52.506;13.462;2023-06-04T01:12:59;2.30;;;2.20;;
8462;SDS011;4268;52.506;13.462;2023-06-04T01:15:25;2.60;;;2.40;;
8462;SDS011;4268;52.506;13.462;2023-06-04T01:17:51;2.53;;;2.43;;
8462;SDS011;4268;52.506;13.462;2023-06-04T01:20:27;2.70;;;2.50;;
8462;SDS011;4268;52.506;13.462;2023-06-04T01:25:40;2.40;;;2.30;;
8462;SDS011;4268;52.506;13.462;2023-06-04T01:28:09;2.23;;;2.13;;
8462;SDS011;4268;52.506;13.462;2023-06-04T01:30:41;2.63;;;2.43;;
8462;SDS011;4268;52.506;13.462;2023-06-04T01:33:10;2.70;;;2.50;;
8462;SDS011;4268;52.506;13.462;2023-06-04T01:35:38;3.33;;;2.30;;
8462;SDS011;4268;52.506;13.462;2023-06-04T01:38:04;2.40;;;2.20;;
8462;SDS011;4268;52.506;13.462;2023-06-04T01:40:29;2.40;;;2.20;;
8462;SDS011;4268;52.506;13.462;2023-06-04T01:42:55;2.47;;;2.37;;
8462;SDS011;4268;52.506;13.462;2023-06-04T01:45:25;2.23;;;2.10;;
8462;SDS011;4268;52.506;13.462;2023-06-04T01:47:51;2.43;;;2.23;;
8462;SDS011;4268;52.506;13.462;2023-06-04T01:50:18;2.53;;;2.33;;
8462;SDS011;4268;52.506;13.462;2023-06-04T01:52:43;2.40;;;2.20;;
8462;SDS011;4268;52.506;13.462;2023-06-04T01:55:11;2.70;;;2.50;;
8462;SDS011;4268;52.506;13.462;2023-06-04T01:57:38;2.33;;;2.23;;
8462;SDS011;4268;52.506;13.462;2023-06-04T02:00:05;2.53;;;2.33;;
8462;SDS011;4268;52.506;13.462;2023-06-04T02:02:35;2.53;;;2.40;;
8462;SDS011;4268;52.506;13.462;2023-06-04T02:05:02;2.50;;;2.30;;
8462;SDS011;4268;52.506;13.462;2023-06-04T02:07:37;2.67;;;2.40;;
8462;SDS011;4268;52.506;13.462;2023-06-04T02:10:07;2.60;;;2.40;;
8462;SDS011;4268;52.506;13.462;2023-06-04T02:12:35;2.47;;;2.20;;
8462;SDS011;4268;52.506;13.462;2023-06-04T02:15:01;2.67;;;2.40;;
8462;SDS011;4268;52.506;13.462;2023-06-04T02:17:27;2.47;;;2.37;;
8462;SDS011;4268;52.506;13.462;2023-06-04T02:19:56;2.37;;;2.27;;
8462;SDS011;4268;52.506;13.462;2023-06-04T02:22:22;2.50;;;2.30;;
8462;SDS011;4268;52.506;13.462;2023-06-04T02:24:47;2.63;;;2.40;;
8462;SDS011;4268;52.506;13.462;2023-06-04T02:27:13;2.67;;;2.50;;
8462;SDS011;4268;52.506;13.462;2023-06-04T02:29:39;2.70;;;2.50;;
8462;SDS011;4268;52.506;13.462;2023-06-04T02:32:06;2.60;;;2.50;;
8462;SDS011;4268;52.506;13.462;2023-06-04T02:34:32;3.00;;;2.80;;
8462;SDS011;4268;52.506;13.462;2023-06-04T02:36:59;2.40;;;2.30;;
8462;SDS011;4268;52.506;13.462;2023-06-04T02:39:25;2.87;;;2.67;;
8462;SDS011;4268;52.506;13.462;2023-06-04T02:41:50;2.93;;;2.70;;
8462;SDS011;4268;52.506;13.462;2023-06-04T02:44:16;3.00;;;2.80;;
8462;SDS011;4268;52.506;13.462;2023-06-04T02:46:41;2.60;;;2.50;;
8462;SDS011;4268;52.506;13.462;2023-06-04T02:49:07;4.17;;;2.80;;
8462;SDS011;4268;52.506;13.462;2023-06-04T02:51:32;2.70;;;2.60;;
8462;SDS011;4268;52.506;13.462;2023-06-04T02:53:58;3.10;;;2.40;;
8462;SDS011;4268;52.506;13.462;2023-06-04T02:56:24;2.60;;;2.50;;
8462;SDS011;4268;52.506;13.462;2023-06-04T02:58:54;2.93;;;2.70;;
8462;SDS011;4268;52.506;13.462;2023-06-04T03:01:23;2.80;;;2.70;;
8462;SDS011;4268;52.506;13.462;2023-06-04T03:03:49;3.00;;;2.80;;
8462;SDS011;4268;52.506;13.462;2023-06-04T03:06:16;3.20;;;3.00;;
8462;SDS011;4268;52.506;13.462;2023-06-04T03:08:45;3.00;;;2.80;;
8462;SDS011;4268;52.506;13.462;2023-06-04T03:11:10;2.90;;;2.70;;
8462;SDS011;4268;52.506;13.462;2023-06-04T03:13:36;2.93;;;2.70;;
8462;SDS011;4268;52.506;13.462;2023-06-04T03:16:02;3.07;;;2.77;;
8462;SDS011;4268;52.506;13.462;2023-06-04T03:18:28;3.00;;;2.80;;
8462;SDS011;4268;52.506;13.462;2023-06-04T03:20:54;3.00;;;2.80;;
8462;SDS011;4268;52.506;13.462;2023-06-04T03:23:20;3.10;;;2.90;;
8462;SDS011;4268;52.506;13.462;2023-06-04T03:25:46;2.97;;;2.70;;
8462;SDS011;4268;52.506;13.462;2023-06-04T03:28:12;3.70;;;3.03;;
8462;SDS011;4268;52.506;13.462;2023-06-04T03:30:38;3.20;;;2.97;;
8462;SDS011;4268;52.506;13.462;2023-06-04T03:33:05;3.20;;;3.00;;
8462;SDS011;4268;52.506;13.462;2023-06-04T03:35:30;3.37;;;2.90;;
8462;SDS011;4268;52.506;13.462;2023-06-04T03:37:56;2.80;;;2.70;;
8462;SDS011;4268;52.506;13.462;2023-06-04T03:40:21;3.00;;;2.80;;
8462;SDS011;4268;52.506;13.462;2023-06-04T03:42:47;3.00;;;2.80;;
8462;SDS011;4268;52.506;13.462;2023-06-04T03:45:12;3.20;;;2.97;;
8462;SDS011;4268;52.506;13.462;2023-06-04T03:47:38;2.90;;;2.70;;
8462;SDS011;4268;52.506;13.462;2023-06-04T03:50:04;3.60;;;2.83;;
8462;SDS011;4268;52.506;13.462;2023-06-04T03:52:30;2.90;;;2.70;;
8462;SDS011;4268;52.506;13.462;2023-06-04T03:54:56;3.07;;;2.87;;
8462;SDS011;4268;52.506;13.462;2023-06-04T03:57:21;3.13;;;2.93;;
8462;SDS011;4268;52.506;13.462;2023-06-04T03:59:47;3.20;;;3.00;;
8462;SDS011;4268;52.506;13.462;2023-06-04T04:02:13;3.20;;;2.90;;
8462;SDS011;4268;52.506;13.462;2023-06-04T04:04:38;3.53;;;3.23;;
8462;SDS011;4268;52.506;13.462;2023-06-04T04:07:03;3.00;;;2.80;;
8462;SDS011;4268;52.506;13.462;2023-06-04T04:09:29;3.40;;;3.10;;
8462;SDS011;4268;52.506;13.462;2023-06-04T04:11:54;3.30;;;3.10;;
8462;SDS011;4268;52.506;13.462;2023-06-04T04:14:20;3.90;;;2.90;;
8462;SDS011;4268;52.506;13.462;2023-06-04T04:16:46;3.10;;;2.90;;
8462;SDS011;4268;52.506;13.462;2023-06-04T04:19:11;3.10;;;2.90;;
8462;SDS011;4268;52.506;13.462;2023-06-04T04:21:37;3.50;;;3.20;;
8462;SDS011;4268;52.506;13.462;2023-06-04T04:24:03;3.43;;;3.10;;
8462;SDS011;4268;52.506;13.462;2023-06-04T04:26:29;3.73;;;3.20;;
8462;SDS011;4268;52.506;13.462;2023-06-04T04:28:54;3.17;;;2.90;;
8462;SDS011;4268;52.506;13.462;2023-06-04T04:31:23;3.10;;;2.90;;
8462;SDS011;4268;52.506;13.462;2023-06-04T04:33:49;4.17;;;2.97;;
8462;SDS011;4268;52.506;13.462;2023-06-04T04:36:16;3.00;;;2.80;;
8462;SDS011;4268;52.506;13.462;2023-06-04T04:38:43;3.37;;;3.07;;
8462;SDS011;4268;52.506;13.462;2023-06-04T04:41:09;3.33;;;3.03;;
8462;SDS011;4268;52.506;13.462;2023-06-04T04:43:36;3.27;;;3.03;;
8462;SDS011;4268;52.506;13.462;2023-06-04T04:46:04;3.07;;;2.87;;
8462;SDS011;4268;52.506;13.462;2023-06-04T04:48:30;4.17;;;3.00;;
8462;SDS011;4268;52.506;13.462;2023-06-04T04:50:56;2.80;;;2.60;;
8462;SDS011;4268;52.506;13.462;2023-06-04T04:53:22;2.90;;;2.70;;
8462;SDS011;4268;52.506;13.462;2023-06-04T04:55:47;3.30;;;3.10;;
8462;SDS011;4268;52.506;13.462;2023-06-04T04:58:13;2.93;;;2.73;;
8462;SDS011;4268;52.506;13.462;2023-06-04T05:00:40;2.90;;;2.70;;
8462;SDS011;4268;52.506;13.462;2023-06-04T05:03:05;3.13;;;2.83;;
8462;SDS011;4268;52.506;13.462;2023-06-04T05:05:31;3.00;;;2.80;;
8462;SDS011;4268;52.506;13.462;2023-06-04T05:07:57;3.00;;;2.80;;
8462;SDS011;4268;52.506;13.462;2023-06-04T05:10:23;3.10;;;2.80;;
8462;SDS011;4268;52.506;13.462;2023-06-04T05:12:52;3.03;;;2.83;;
8462;SDS011;4268;52.506;13.462;2023-06-04T05:15:19;4.60;;;3.00;;
8462;SDS011;4268;52.506;13.462;2023-06-04T05:17:45;3.20;;;2.90;;
8462;SDS011;4268;52.506;13.462;2023-06-04T05:20:13;3.30;;;3.00;;
8462;SDS011;4268;52.506;13.462;2023-06-04T05:22:40;3.20;;;3.00;;
8462;SDS011;4268;52.506;13.462;2023-06-04T05:25:06;3.33;;;3.10;;
8462;SDS011;4268;52.506;13.462;2023-06-04T05:27:33;2.93;;;2.70;;
8462;SDS011;4268;52.506;13.462;2023-06-04T05:29:59;2.93;;;2.73;;
8462;SDS011;4268;52.506;13.462;2023-06-04T05:32:26;3.20;;;2.90;;
8462;SDS011;4268;52.506;13.462;2023-06-04T05:34:53;3.63;;;2.90;;
8462;SDS011;4268;52.506;13.462;2023-06-04T05:37:21;3.20;;;2.90;;
8462;SDS011;4268;52.506;13.462;2023-06-04T05:39:48;2.97;;;2.77;;
8462;SDS011;4268;52.506;13.462;2023-06-04T05:42:14;3.10;;;2.80;;
8462;SDS011;4268;52.506;13.462;2023-06-04T05:44:40;4.13;;;2.87;;
8462;SDS011;4268;52.506;13.462;2023-06-04T05:47:05;3.33;;;2.90;;
8462;SDS011;4268;52.506;13.462;2023-06-04T05:49:33;3.10;;;2.80;;
8462;SDS011;4268;52.506;13.462;2023-06-04T05:51:59;2.70;;;2.50;;
8462;SDS011;4268;52.506;13.462;2023-06-04T05:54:26;2.83;;;2.63;;
8462;SDS011;4268;52.506;13.462;2023-06-04T05:56:52;2.80;;;2.60;;
8462;SDS011;4268;52.506;13.462;2023-06-04T05:59:17;2.67;;;2.40;;
8462;SDS011;4268;52.506;13.462;2023-06-04T06:01:43;4.10;;;2.50;;
8462;SDS011;4268;52.506;13.462;2023-06-04T06:04:08;2.73;;;2.53;;
8462;SDS011;4268;52.506;13.462;2023-06-04T06:06:35;2.77;;;2.37;;
8462;SDS011;4268;52.506;13.462;2023-06-04T06:09:01;2.60;;;2.40;;
8462;SDS011;4268;52.506;13.462;2023-06-04T06:11:26;2.43;;;2.30;;
8462;SDS011;4268;52.506;13.462;2023-06-04T06:13:52;2.60;;;2.40;;
8462;SDS011;4268;52.506;13.462;2023-06-04T06:16:18;5.55;;;5.05;;
8462;SDS011;4268;52.506;13.462;2023-06-04T06:18:43;2.83;;;2.63;;
8462;SDS011;4268;52.506;13.462;2023-06-04T06:21:09;3.63;;;2.38;;
8462;SDS011;4268;52.506;13.462;2023-06-04T06:23:35;2.65;;;2.40;;
8462;SDS011;4268;52.506;13.462;2023-06-04T06:26:01;2.20;;;2.00;;
8462;SDS011;4268;52.506;13.462;2023-06-04T06:28:27;2.33;;;2.20;;
8462;SDS011;4268;52.506;13.462;2023-06-04T06:30:52;2.45;;;2.25;;
8462;SDS011;4268;52.506;13.462;2023-06-04T06:33:18;3.00;;;2.63;;
8462;SDS011;4268;52.506;13.462;2023-06-04T06:35:46;2.75;;;2.17;;
8462;SDS011;4268;52.506;13.462;2023-06-04T06:38:12;2.63;;;2.10;;
8462;SDS011;4268;52.506;13.462;2023-06-04T06:40:38;2.53;;;2.40;;
8462;SDS011;4268;52.506;13.462;2023-06-04T06:43:05;2.35;;;2.20;;
8462;SDS011;4268;52.506;13.462;2023-06-04T06:45:30;2.75;;;2.30;;
8462;SDS011;4268;52.506;13.462;2023-06-04T06:47:56;2.60;;;2.30;;
8462;SDS011;4268;52.506;13.462;2023-06-04T06:50:21;2.60;;;2.13;;
8462;SDS011;4268;52.506;13.462;2023-06-04T06:52:47;3.28;;;2.40;;
8462;SDS011;4268;52.506;13.462;2023-06-04T06:55:12;2.45;;;2.35;;
8462;SDS011;4268;52.506;13.462;2023-06-04T06:57:38;2.67;;;2.58;;
8462;SDS011;4268;52.506;13.462;2023-06-04T07:00:03;2.67;;;2.40;;
8462;SDS011;4268;52.506;13.462;2023-06-04T07:02:30;3.03;;;2.33;;
8462;SDS011;4268;52.506;13.462;2023-06-04T07:04:56;2.50;;;2.28;;
8462;SDS011;4268;52.506;13.462;2023-06-04T07:07:22;2.10;;;2.00;;
8462;SDS011;4268;52.506;13.462;2023-06-04T07:09:47;2.20;;;2.10;;
8462;SDS011;4268;52.506;13.462;2023-06-04T07:12:13;1.98;;;1.88;;
8462;SDS011;4268;52.506;13.462;2023-06-04T07:14:38;2.08;;;1.70;;
8462;SDS011;4268;52.506;13.462;2023-06-04T07:17:04;2.22;;;2.03;;
8462;SDS011;4268;52.506;13.462;2023-06-04T07:19:29;2.10;;;2.00;;
8462;SDS011;4268;52.506;13.462;2023-06-04T07:21:55;1.90;;;1.80;;
8462;SDS011;4268;52.506;13.462;2023-06-04T07:24:20;2.03;;;1.92;;
8462;SDS011;4268;52.506;13.462;2023-06-04T07:26:46;2.80;;;1.65;;
8462;SDS011;4268;52.506;13.462;2023-06-04T07:29:12;2.35;;;1.80;;
8462;SDS011;4268;52.506;13.462;2023-06-04T07:31:38;2.47;;;1.73;;
8462;SDS011;4268;52.506;13.462;2023-06-04T07:34:04;2.90;;;1.73;;
8462;SDS011;4268;52.506;13.462;2023-06-04T07:36:29;4.28;;;2.00;;
8462;SDS011;4268;52.506;13.462;2023-06-04T07:38:56;3.58;;;2.10;;
8462;SDS011;4268;52.506;13.462;2023-06-04T07:41:21;2.33;;;2.13;;
8462;SDS011;4268;52.506;13.462;2023-06-04T07:43:47;2.38;;;2.20;;
8462;SDS011;4268;52.506;13.462;2023-06-04T07:46:12;4.00;;;1.95;;
8462;SDS011;4268;52.506;13.462;2023-06-04T07:48:38;2.47;;;2.33;;
8462;SDS011;4268;52.506;13.462;2023-06-04T07:51:03;2.00;;;1.90;;
8462;SDS011;4268;52.506;13.462;2023-06-04T07:53:29;2.27;;;2.03;;
8462;SDS011;4268;52.506;13.462;2023-06-04T07:55:56;1.90;;;1.80;;
8462;SDS011;4268;52.506;13.462;2023-06-04T07:58:22;2.83;;;2.03;;
8462;SDS011;4268;52.506;13.462;2023-06-04T08:00:48;3.88;;;1.75;;
8462;SDS011;4268;52.506;13.462;2023-06-04T08:03:13;2.00;;;1.90;;
8462;SDS011;4268;52.506;13.462;2023-06-04T08:05:40;2.53;;;2.05;;
8462;SDS011;4268;52.506;13.462;2023-06-04T08:08:06;1.90;;;1.80;;
8462;SDS011;4268;52.506;13.462;2023-06-04T08:10:31;2.20;;;1.63;;
8462;SDS011;4268;52.506;13.462;2023-06-04T08:12:57;2.60;;;2.40;;
8462;SDS011;4268;52.506;13.462;2023-06-04T08:15:22;1.77;;;1.67;;
8462;SDS011;4268;52.506;13.462;2023-06-04T08:17:48;1.90;;;1.80;;
8462;SDS011;4268;52.506;13.462;2023-06-04T08:20:13;1.90;;;1.80;;
8462;SDS011;4268;52.506;13.462;2023-06-04T08:22:39;2.73;;;1.67;;
8462;SDS011;4268;52.506;13.462;2023-06-04T08:25:05;2.97;;;2.07;;
8462;SDS011;4268;52.506;13.462;2023-06-04T08:27:32;2.63;;;2.40;;
8462;SDS011;4268;52.506;13.462;2023-06-04T08:29:57;1.90;;;1.80;;
8462;SDS011;4268;52.506;13.462;2023-06-04T08:32:23;2.97;;;2.30;;
8462;SDS011;4268;52.506;13.462;2023-06-04T08:34:49;4.90;;;1.90;;
8462;SDS011;4268;52.506;13.462;2023-06-04T08:37:15;4.60;;;2.10;;
8462;SDS011;4268;52.506;13.462;2023-06-04T08:39:43;2.00;;;1.90;;
8462;SDS011;4268;52.506;13.462;2023-06-04T08:42:51;2.93;;;2.10;;
8462;SDS011;4268;52.506;13.462;2023-06-04T08:45:02;2.00;;;1.90;;
8462;SDS011;4268;52.506;13.462;2023-06-04T08:47:28;4.43;;;2.27;;
8462;SDS011;4268;52.506;13.462;2023-06-04T08:49:55;2.13;;;1.93;;
8462;SDS011;4268;52.506;13.462;2023-06-04T08:52:25;2.13;;;2.00;;
8462;SDS011;4268;52.506;13.462;2023-06-04T08:54:52;1.97;;;1.87;;
8462;SDS011;4268;52.506;13.462;2023-06-04T08:57:19;2.87;;;2.30;;
8462;SDS011;4268;52.506;13.462;2023-06-04T08:59:47;2.53;;;2.00;;
8462;SDS011;4268;52.506;13.462;2023-06-04T09:02:14;1.90;;;1.80;;
8462;SDS011;4268;52.506;13.462;2023-06-04T09:04:40;2.43;;;2.33;;
8462;SDS011;4268;52.506;13.462;2023-06-04T09:07:06;1.80;;;1.70;;
8462;SDS011;4268;52.506;13.462;2023-06-04T09:09:37;2.10;;;2.00;;
8462;SDS011;4268;52.506;13.462;2023-06-04T09:12:04;2.23;;;2.10;;
8462;SDS011;4268;52.506;13.462;2023-06-04T09:14:33;3.87;;;2.00;;
8462;SDS011;4268;52.506;13.462;2023-06-04T09:16:59;2.10;;;2.00;;
8462;SDS011;4268;52.506;13.462;2023-06-04T09:19:25;2.20;;;2.00;;
8462;SDS011;4268;52.506;13.462;2023-06-04T09:21:51;2.30;;;2.10;;
8462;SDS011;4268;52.506;13.462;2023-06-04T09:24:18;2.27;;;2.10;;
8462;SDS011;4268;52.506;13.462;2023-06-04T09:26:44;2.00;;;1.90;;
8462;SDS011;4268;52.506;13.462;2023-06-04T09:29:10;1.90;;;1.80;;
8462;SDS011;4268;52.506;13.462;2023-06-04T09:31:35;3.80;;;1.90;;
8462;SDS011;4268;52.506;13.462;2023-06-04T09:34:02;3.00;;;2.10;;
8462;SDS011;4268;52.506;13.462;2023-06-04T09:36:32;2.93;;;2.00;;
8462;SDS011;4268;52.506;13.462;2023-06-04T09:38:58;2.63;;;2.17;;
8462;SDS011;4268;52.506;13.462;2023-06-04T09:41:25;1.80;;;1.80;;
8462;SDS011;4268;52.506;13.462;2023-06-04T09:43:51;2.03;;;1.93;;
8462;SDS011;4268;52.506;13.462;2023-06-04T09:46:27;2.20;;;2.00;;
8462;SDS011;4268;52.506;13.462;2023-06-04T09:48:59;2.20;;;2.10;;
8462;SDS011;4268;52.506;13.462;2023-06-04T09:51:29;1.93;;;1.83;;
8462;SDS011;4268;52.506;13.462;2023-06-04T09:53:59;2.23;;;2.03;;
8462;SDS011;4268;52.506;13.462;2023-06-04T09:56:26;2.60;;;2.40;;
8462;SDS011;4268;52.506;13.462;2023-06-04T09:58:59;2.10;;;2.00;;
8462;SDS011;4268;52.506;13.462;2023-06-04T10:01:26;3.10;;;2.80;;
8462;SDS011;4268;52.506;13.462;2023-06-04T10:03:53;1.83;;;1.73;;
8462;SDS011;4268;52.506;13.462;2023-06-04T10:06:21;2.20;;;1.83;;
8462;SDS011;4268;52.506;13.462;2023-06-04T10:08:49;1.90;;;1.80;;
8462;SDS011;4268;52.506;13.462;2023-06-04T10:11:17;2.10;;;2.00;;
8462;SDS011;4268;52.506;13.462;2023-06-04T10:13:53;2.00;;;1.90;;
8462;SDS011;4268;52.506;13.462;2023-06-04T10:16:25;2.30;;;2.10;;
8462;SDS011;4268;52.506;13.462;2023-06-04T10:18:52;2.23;;;2.13;;
8462;SDS011;4268;52.506;13.462;2023-06-04T10:21:19;2.10;;;2.00;;
8462;SDS011;4268;52.506;13.462;2023-06-04T10:23:45;2.33;;;2.20;;
8462;SDS011;4268;52.506;13.462;2023-06-04T10:26:14;2.00;;;1.90;;
8462;SDS011;4268;52.506;13.462;2023-06-04T10:28:41;2.40;;;2.20;;
8462;SDS011;4268;52.506;13.462;2023-06-04T10:31:10;2.23;;;2.13;;
8462;SDS011;4268;52.506;13.462;2023-06-04T10:33:36;2.40;;;2.20;;
8462;SDS011;4268;52.506;13.462;2023-06-04T10:36:15;2.30;;;2.20;;
8462;SDS011;4268;52.506;13.462;2023-06-04T10:38:49;1.90;;;1.80;;
8462;SDS011;4268;52.506;13.462;2023-06-04T10:41:16;3.20;;;2.23;;
8462;SDS011;4268;52.506;13.462;2023-06-04T10:43:43;3.30;;;2.50;;
8462;SDS011;4268;52.506;13.462;2023-06-04T10:46:13;2.33;;;2.13;;
8462;SDS011;4268;52.506;13.462;2023-06-04T10:48:46;3.17;;;2.93;;
8462;SDS011;4268;52.506;13.462;2023-06-04T10:51:16;2.07;;;1.97;;
8462;SDS011;4268;52.506;13.462;2023-06-04T10:53:54;2.40;;;2.00;;
8462;SDS011;4268;52.506;13.462;2023-06-04T10:56:24;2.10;;;2.00;;
8462;SDS011;4268;52.506;13.462;2023-06-04T10:58:51;2.20;;;2.10;;
8462;SDS011;4268;52.506;13.462;2023-06-04T11:01:23;3.57;;;2.10;;
8462;SDS011;4268;52.506;13.462;2023-06-04T11:03:50;2.20;;;2.00;;
8462;SDS011;4268;52.506;13.462;2023-06-04T11:06:15;2.40;;;2.17;;
8462;SDS011;4268;52.506;13.462;2023-06-04T11:08:42;1.83;;;1.80;;
8462;SDS011;4268;52.506;13.462;2023-06-04T11:11:11;2.03;;;1.93;;
8462;SDS011;4268;52.506;13.462;2023-06-04T11:13:38;2.60;;;2.40;;
8462;SDS011;4268;52.506;13.462;2023-06-04T11:16:14;2.30;;;1.90;;
8462;SDS011;4268;52.506;13.462;2023-06-04T11:18:41;2.00;;;1.90;;
8462;SDS011;4268;52.506;13.462;2023-06-04T11:21:06;2.43;;;2.23;;
8462;SDS011;4268;52.506;13.462;2023-06-04T11:23:32;2.30;;;2.20;;
8462;SDS011;4268;52.506;13.462;2023-06-04T11:25:58;2.23;;;2.13;;
8462;SDS011;4268;52.506;13.462;2023-06-04T11:28:24;2.27;;;2.13;;
8462;SDS011;4268;52.506;13.462;2023-06-04T11:33:30;2.73;;;2.33;;
8462;SDS011;4268;52.506;13.462;2023-06-04T11:36:06;2.43;;;2.30;;
8462;SDS011;4268;52.506;13.462;2023-06-04T11:38:32;2.60;;;2.43;;
8462;SDS011;4268;52.506;13.462;2023-06-04T11:41:01;2.37;;;2.27;;
8462;SDS011;4268;52.506;13.462;2023-06-04T11:43:29;2.10;;;2.00;;
8462;SDS011;4268;52.506;13.462;2023-06-04T11:45:56;2.07;;;1.97;;
8462;SDS011;4268;52.506;13.462;2023-06-04T11:48:22;2.43;;;2.10;;
8462;SDS011;4268;52.506;13.462;2023-06-04T11:50:48;2.13;;;2.03;;
8462;SDS011;4268;52.506;13.462;2023-06-04T11:53:14;2.57;;;2.47;;
8462;SDS011;4268;52.506;13.462;2023-06-04T11:55:39;2.27;;;2.13;;
8462;SDS011;4268;52.506;13.462;2023-06-04T11:58:05;2.50;;;2.30;;
8462;SDS011;4268;52.506;13.462;2023-06-04T12:00:30;2.10;;;2.00;;
8462;SDS011;4268;52.506;13.462;2023-06-04T12:02:56;2.47;;;2.33;;
8462;SDS011;4268;52.506;13.462;2023-06-04T12:05:23;2.60;;;2.50;;
8462;SDS011;4268;52.506;13.462;2023-06-04T12:08:03;2.70;;;2.43;;
8462;SDS011;4268;52.506;13.462;2023-06-04T12:10:36;2.20;;;2.10;;
8462;SDS011;4268;52.506;13.462;2023-06-04T12:13:03;2.00;;;1.90;;
8462;SDS011;4268;52.506;13.462;2023-06-04T12:15:28;2.73;;;2.53;;
8462;SDS011;4268;52.506;13.462;2023-06-04T12:17:54;2.50;;;2.33;;
8462;SDS011;4268;52.506;13.462;2023-06-04T12:20:35;2.43;;;2.27;;
8462;SDS011;4268;52.506;13.462;2023-06-04T12:23:02;2.13;;;2.03;;
8462;SDS011;4268;52.506;13.462;2023-06-04T12:25:29;2.17;;;2.07;;
8462;SDS011;4268;52.506;13.462;2023-06-04T12:27:56;2.33;;;2.13;;
8462;SDS011;4268;52.506;13.462;2023-06-04T12:30:21;2.20;;;2.10;;
8462;SDS011;4268;52.506;13.462;2023-06-04T12:32:47;2.53;;;2.00;;
8462;SDS011;4268;52.506;13.462;2023-06-04T12:35:13;2.00;;;1.90;;
8462;SDS011;4268;52.506;13.462;2023-06-04T12:37:41;1.90;;;1.80;;
8462;SDS011;4268;52.506;13.462;2023-06-04T12:40:06;2.17;;;2.07;;
8462;SDS011;4268;52.506;13.462;2023-06-04T12:42:33;2.43;;;2.33;;
8462;SDS011;4268;52.506;13.462;2023-06-04T12:44:59;2.40;;;2.30;;
8462;SDS011;4268;52.506;13.462;2023-06-04T12:47:25;2.13;;;1.90;;
8462;SDS011;4268;52.506;13.462;2023-06-04T12:49:50;1.97;;;1.87;;
8462;SDS011;4268;52.506;13.462;2023-06-04T12:52:17;2.50;;;2.30;;
8462;SDS011;4268;52.506;13.462;2023-06-04T12:54:43;2.00;;;1.90;;
8462;SDS011;4268;52.506;13.462;2023-06-04T12:57:08;2.28;;;2.17;;
8462;SDS011;4268;52.506;13.462;2023-06-04T12:59:34;2.40;;;2.20;;
8462;SDS011;4268;52.506;13.462;2023-06-04T13:02:00;2.43;;;1.90;;
8462;SDS011;4268;52.506;13.462;2023-06-04T13:04:25;2.30;;;2.20;;
8462;SDS011;4268;52.506;13.462;2023-06-04T13:06:51;4.07;;;2.00;;
8462;SDS011;4268;52.506;13.462;2023-06-04T13:09:19;2.30;;;1.90;;
8462;SDS011;4268;52.506;13.462;2023-06-04T13:11:45;2.97;;;2.13;;
8462;SDS011;4268;52.506;13.462;2023-06-04T13:14:11;1.90;;;1.80;;
8462;SDS011;4268;52.506;13.462;2023-06-04T13:16:39;2.67;;;1.83;;
8462;SDS011;4268;52.506;13.462;2023-06-04T13:19:06;2.10;;;2.00;;
8462;SDS011;4268;52.506;13.462;2023-06-04T13:21:32;2.03;;;1.93;;
8462;SDS011;4268;52.506;13.462;2023-06-04T13:23:57;2.33;;;2.00;;
8462;SDS011;4268;52.506;13.462;2023-06-04T13:26:23;2.27;;;2.00;;
8462;SDS011;4268;52.506;13.462;2023-06-04T13:28:48;2.50;;;2.00;;
8462;SDS011;4268;52.506;13.462;2023-06-04T13:31:14;2.70;;;1.97;;
8462;SDS011;4268;52.506;13.462;2023-06-04T13:33:40;2.30;;;2.20;;
8462;SDS011;4268;52.506;13.462;2023-06-04T13:36:06;2.10;;;2.00;;
8462;SDS011;4268;52.506;13.462;2023-06-04T13:38:32;2.10;;;1.83;;
8462;SDS011;4268;52.506;13.462;2023-06-04T13:40:57;2.20;;;2.10;;
8462;SDS011;4268;52.506;13.462;2023-06-04T13:43:23;2.20;;;2.10;;
8462;SDS011;4268;52.506;13.462;2023-06-04T13:45:49;3.80;;;2.40;;
8462;SDS011;4268;52.506;13.462;2023-06-04T13:48:14;2.10;;;2.00;;
8462;SDS011;4268;52.506;13.462;2023-06-04T13:50:40;2.13;;;1.93;;
8462;SDS011;4268;52.506;13.462;2023-06-04T13:53:07;2.27;;;2.07;;
8462;SDS011;4268;52.506;13.462;2023-06-04T13:55:33;2.00;;;1.90;;
8462;SDS011;4268;52.506;13.462;2023-06-04T13:57:58;2.00;;;1.90;;
8462;SDS011;4268;52.506;13.462;2023-06-04T14:00:24;2.10;;;2.00;;
8462;SDS011;4268;52.506;13.462;2023-06-04T14:02:49;1.90;;;1.80;;
8462;SDS011;4268;52.506;13.462;2023-06-04T14:05:15;2.40;;;1.83;;
8462;SDS011;4268;52.506;13.462;2023-06-04T14:07:41;2.28;;;2.00;;
8462;SDS011;4268;52.506;13.462;2023-06-04T14:10:08;2.17;;;1.98;;
8462;SDS011;4268;52.506;13.462;2023-06-04T14:12:34;2.00;;;1.90;;
8462;SDS011;4268;52.506;13.462;2023-06-04T14:15:03;2.33;;;1.98;;
8462;SDS011;4268;52.506;13.462;2023-06-04T14:17:36;2.00;;;1.85;;
8462;SDS011;4268;52.506;13.462;2023-06-04T14:20:03;1.80;;;1.70;;
8462;SDS011;4268;52.506;13.462;2023-06-04T14:22:32;2.58;;;2.13;;
8462;SDS011;4268;52.506;13.462;2023-06-04T14:24:59;1.98;;;1.88;;
8462;SDS011;4268;52.506;13.462;2023-06-04T14:27:26;2.17;;;2.07;;
8462;SDS011;4268;52.506;13.462;2023-06-04T14:29:51;2.13;;;2.00;;
8462;SDS011;4268;52.506;13.462;2023-06-04T14:32:17;2.30;;;2.20;;
8462;SDS011;4268;52.506;13.462;2023-06-04T14:34:42;3.30;;;2.10;;
8462;SDS011;4268;52.506;13.462;2023-06-04T14:37:08;2.72;;;2.00;;
8462;SDS011;4268;52.506;13.462;2023-06-04T14:39:33;1.70;;;1.60;;
8462;SDS011;4268;52.506;13.462;2023-06-04T14:42:01;1.77;;;1.67;;
8462;SDS011;4268;52.506;13.462;2023-06-04T14:44:26;2.28;;;1.88;;
8462;SDS011;4268;52.506;13.462;2023-06-04T14:46:52;2.15;;;2.05;;
8462;SDS011;4268;52.506;13.462;2023-06-04T14:49:17;2.50;;;1.90;;
8462;SDS011;4268;52.506;13.462;2023-06-04T14:51:43;2.33;;;2.00;;
8462;SDS011;4268;52.506;13.462;2023-06-04T14:54:08;2.00;;;1.90;;
8462;SDS011;4268;52.506;13.462;2023-06-04T14:56:34;2.30;;;2.20;;
8462;SDS011;4268;52.506;13.462;2023-06-04T14:59:00;2.33;;;2.23;;
8462;SDS011;4268;52.506;13.462;2023-06-04T15:01:26;2.70;;;2.50;;
8462;SDS011;4268;52.506;13.462;2023-06-04T15:03:52;2.60;;;2.40;;
8462;SDS011;4268;52.506;13.462;2023-06-04T15:06:18;2.40;;;2.20;;